createdAt,value
2023-05-07T00:00:53.264Z,21.51
2023-05-07T00:03:22.335Z,21.58
2023-05-07T00:05:51.728Z,21.64
2023-05-07T00:08:20.869Z,21.74
2023-05-07T00:10:50.018Z,21.60
2023-05-07T00:13:19.026Z,21.86
2023-05-07T00:15:48.234Z,21.74
2023-05-07T00:18:17.140Z,21.78
2023-05-07T00:20:46.388Z,22.03
2023-05-07T00:23:15.225Z,21.99
2023-05-07T00:25:44.343Z,22.02
2023-05-07T00:28:13.217Z,22.14
2023-05-07T00:30:42.466Z,22.13
2023-05-07T00:33:11.399Z,22.17
2023-05-07T00:35:40.652Z,22.24
2023-05-07T00:38:10.107Z,22.19
2023-05-07T00:40:39.186Z,22.39
2023-05-07T00:43:08.724Z,22.60
2023-05-07T00:45:38.068Z,22.49
2023-05-07T00:48:07.390Z,22.62
2023-05-07T00:50:36.660Z,22.51
2023-05-07T00:53:06.570Z,22.50
2023-05-07T00:55:36.136Z,22.72
2023-05-07T00:58:05.509Z,22.82
2023-05-07T01:00:35.133Z,22.86
2023-05-07T01:03:04.287Z,22.96
2023-05-07T01:05:34.706Z,23.08
2023-05-07T01:08:07.049Z,23.26
2023-05-07T01:10:36.621Z,23.31
2023-05-07T01:13:06.414Z,23.43
2023-05-07T01:15:35.602Z,23.46
2023-05-07T01:18:05.212Z,23.61
2023-05-07T01:20:37.117Z,23.60
2023-05-07T01:23:08.703Z,23.65
2023-05-07T01:25:38.269Z,23.70
2023-05-07T01:28:07.836Z,23.82
2023-05-07T01:30:43.397Z,23.91
2023-05-07T01:33:16.074Z,23.88
2023-05-07T01:35:49.855Z,24.04
2023-05-07T01:38:20.404Z,23.96
2023-05-07T01:40:50.115Z,24.12
2023-05-07T01:43:20.101Z,24.06
2023-05-07T01:45:51.171Z,24.15
2023-05-07T01:48:20.786Z,24.20
2023-05-07T01:50:50.540Z,24.34
2023-05-07T01:53:19.668Z,24.34
2023-05-07T01:55:48.466Z,24.33
2023-05-07T01:58:18.798Z,24.39
2023-05-07T02:00:48.192Z,24.46
2023-05-07T02:03:17.239Z,24.60
2023-05-07T02:05:54.899Z,24.59
2023-05-07T02:08:39.343Z,24.62
2023-05-07T02:11:15.034Z,24.79
2023-05-07T02:13:44.351Z,24.78
2023-05-07T02:16:13.439Z,24.93
2023-05-07T02:18:42.795Z,24.84
2023-05-07T02:21:11.746Z,24.69
2023-05-07T02:23:40.806Z,24.64
2023-05-07T02:26:10.163Z,24.60
2023-05-07T02:28:40.722Z,24.68
2023-05-07T02:31:09.884Z,24.66
2023-05-07T02:33:38.763Z,24.80
2023-05-07T02:36:13.904Z,24.62
2023-05-07T02:38:53.041Z,24.90
2023-05-07T02:41:22.569Z,24.56
2023-05-07T02:43:51.686Z,24.48
2023-05-07T02:46:21.976Z,24.71
2023-05-07T02:48:59.144Z,24.57
2023-05-07T02:51:28.950Z,24.68
2023-05-07T02:54:00.856Z,24.70
2023-05-07T02:56:30.977Z,24.84
2023-05-07T02:59:00.505Z,24.49
2023-05-07T03:01:33.944Z,24.67
2023-05-07T03:04:08.641Z,24.75
2023-05-07T03:06:37.804Z,25.11
2023-05-07T03:09:06.850Z,24.91
2023-05-07T03:11:36.199Z,25.11
2023-05-07T03:14:05.250Z,25.35
2023-05-07T03:16:34.854Z,25.04
2023-05-07T03:19:04.035Z,25.22
2023-05-07T03:21:35.681Z,25.37
2023-05-07T03:24:04.927Z,25.26
2023-05-07T03:26:33.942Z,25.49
2023-05-07T03:29:03.766Z,25.62
2023-05-07T03:31:32.977Z,25.60
2023-05-07T03:34:03.612Z,25.74
2023-05-07T03:36:33.062Z,25.92
2023-05-07T03:39:02.258Z,25.75
2023-05-07T03:41:38.670Z,25.93
2023-05-07T03:44:07.933Z,25.90
2023-05-07T03:46:37.192Z,26.09
2023-05-07T03:49:06.420Z,26.13
2023-05-07T03:51:35.669Z,26.19
2023-05-07T03:54:06.908Z,26.38
2023-05-07T03:56:36.617Z,26.30
2023-05-07T03:59:05.561Z,26.44
2023-05-07T04:01:34.868Z,26.49
2023-05-07T04:04:05.188Z,26.58
2023-05-07T04:06:35.559Z,26.97
2023-05-07T04:09:05.276Z,26.87
2023-05-07T04:11:34.320Z,27.15
2023-05-07T04:14:03.517Z,27.15
2023-05-07T04:16:32.401Z,27.44
2023-05-07T04:19:01.729Z,27.65
2023-05-07T04:21:32.057Z,27.57
2023-05-07T04:24:01.670Z,27.75
2023-05-07T04:26:31.334Z,28.02
2023-05-07T04:29:01.815Z,28.03
2023-05-07T04:31:35.393Z,28.04
2023-05-07T04:34:04.654Z,28.27
2023-05-07T04:36:35.154Z,28.18
2023-05-07T04:39:09.891Z,28.43
2023-05-07T04:41:40.546Z,28.64
2023-05-07T04:44:11.369Z,28.69
2023-05-07T04:46:40.629Z,28.85
2023-05-07T04:49:09.391Z,29.15
2023-05-07T04:51:38.627Z,29.37
2023-05-07T04:54:07.916Z,29.37
2023-05-07T04:56:36.964Z,29.35
2023-05-07T04:59:06.139Z,29.60
2023-05-07T05:01:35.426Z,29.63
2023-05-07T05:04:04.510Z,29.71
2023-05-07T05:06:34.226Z,29.91
2023-05-07T05:09:06.881Z,30.07
2023-05-07T05:11:37.088Z,30.03
2023-05-07T05:14:06.816Z,30.15
2023-05-07T05:16:35.763Z,30.25
2023-05-07T05:19:05.190Z,30.36
2023-05-07T05:21:37.114Z,30.46
2023-05-07T05:24:10.432Z,30.69
2023-05-07T05:26:40.857Z,30.58
2023-05-07T05:29:10.187Z,30.80
2023-05-07T05:31:43.612Z,30.84
2023-05-07T05:34:13.215Z,31.20
2023-05-07T05:36:43.259Z,31.39
2023-05-07T05:39:12.604Z,31.42
2023-05-07T05:41:41.545Z,31.33
2023-05-07T05:44:10.695Z,31.43
2023-05-07T05:46:40.280Z,31.44
2023-05-07T05:49:09.521Z,31.65
2023-05-07T05:51:39.395Z,31.76
2023-05-07T05:54:08.627Z,32.00
2023-05-07T05:56:39.895Z,32.20
2023-05-07T05:59:09.967Z,32.19
2023-05-07T06:01:39.786Z,32.33
2023-05-07T06:04:09.213Z,32.33
2023-05-07T06:06:38.414Z,32.34
2023-05-07T06:09:07.395Z,32.39
2023-05-07T06:11:43.716Z,32.45
2023-05-07T06:14:14.353Z,32.58
2023-05-07T06:16:44.063Z,32.61
2023-05-07T06:19:13.426Z,32.71
2023-05-07T06:21:43.920Z,32.89
2023-05-07T06:24:13.237Z,32.87
2023-05-07T06:26:42.180Z,33.01
2023-05-07T06:29:11.481Z,33.17
2023-05-07T06:31:42.975Z,33.15
2023-05-07T06:34:18.340Z,33.25
2023-05-07T06:36:48.214Z,33.33
2023-05-07T06:39:26.828Z,33.46
2023-05-07T06:41:56.254Z,33.57
2023-05-07T06:44:34.050Z,33.49
2023-05-07T06:47:09.867Z,33.66
2023-05-07T06:49:41.484Z,33.73
2023-05-07T06:52:10.508Z,33.96
2023-05-07T06:54:39.786Z,34.04
2023-05-07T06:57:10.286Z,33.92
2023-05-07T06:59:39.536Z,34.10
2023-05-07T07:02:08.841Z,34.11
2023-05-07T07:04:39.703Z,34.00
2023-05-07T07:07:12.397Z,34.37
2023-05-07T07:09:43.223Z,34.33
2023-05-07T07:12:13.192Z,34.50
2023-05-07T07:14:43.261Z,34.59
2023-05-07T07:17:12.584Z,34.74
2023-05-07T07:19:41.616Z,34.67
2023-05-07T07:22:12.211Z,34.80
2023-05-07T07:24:41.255Z,34.85
2023-05-07T07:27:12.554Z,35.08
2023-05-07T07:29:42.009Z,35.00
2023-05-07T07:32:10.884Z,35.02
2023-05-07T07:34:40.319Z,35.22
2023-05-07T07:37:09.970Z,35.12
2023-05-07T07:39:39.972Z,35.28
2023-05-07T07:42:10.699Z,35.32
2023-05-07T07:44:41.777Z,35.35
2023-05-07T07:47:12.900Z,35.39
2023-05-07T07:49:43.043Z,35.48
2023-05-07T07:52:12.529Z,35.39
2023-05-07T07:54:42.808Z,35.64
2023-05-07T07:57:11.793Z,35.55
2023-05-07T07:59:41.505Z,35.71
2023-05-07T08:02:11.722Z,35.82
2023-05-07T08:04:41.305Z,35.76
2023-05-07T08:07:12.652Z,35.76
2023-05-07T08:09:44.761Z,35.82
2023-05-07T08:12:14.596Z,35.79
2023-05-07T08:14:44.147Z,35.90
2023-05-07T08:17:13.657Z,35.89
2023-05-07T08:19:42.922Z,35.59
2023-05-07T08:22:14.699Z,35.73
2023-05-07T08:24:44.150Z,35.90
2023-05-07T08:27:13.845Z,35.89
2023-05-07T08:29:44.693Z,35.99
2023-05-07T08:32:13.815Z,36.09
2023-05-07T08:34:42.707Z,35.88
2023-05-07T08:37:12.106Z,35.93
2023-05-07T08:39:41.557Z,35.51
2023-05-07T08:42:20.081Z,35.91
2023-05-07T08:44:50.256Z,36.14
2023-05-07T08:47:22.328Z,36.13
2023-05-07T08:49:54.265Z,36.02
2023-05-07T08:52:24.103Z,35.95
2023-05-07T08:54:53.462Z,36.01
2023-05-07T08:57:23.653Z,36.13
2023-05-07T08:59:53.224Z,36.25
2023-05-07T09:02:22.904Z,36.26
2023-05-07T09:04:53.129Z,36.25
2023-05-07T09:07:22.662Z,36.33
2023-05-07T09:09:51.602Z,36.04
2023-05-07T09:12:22.968Z,36.19
2023-05-07T09:14:52.324Z,36.27
2023-05-07T09:17:21.237Z,36.25
2023-05-07T09:19:50.569Z,36.29
2023-05-07T09:22:19.639Z,36.19
2023-05-07T09:25:09.987Z,36.22
2023-05-07T09:27:40.678Z,36.19
2023-05-07T09:30:11.467Z,36.19
2023-05-07T09:32:40.954Z,36.04
2023-05-07T09:35:20.050Z,36.14
2023-05-07T09:37:55.146Z,36.02
2023-05-07T09:40:25.814Z,36.05
2023-05-07T09:42:56.733Z,35.88
2023-05-07T09:45:30.210Z,35.93
2023-05-07T09:48:01.244Z,35.70
2023-05-07T09:50:34.821Z,35.87
2023-05-07T09:53:05.541Z,35.88
2023-05-07T09:55:35.408Z,35.90
2023-05-07T09:58:07.419Z,35.80
2023-05-07T10:00:37.584Z,35.63
2023-05-07T10:03:13.591Z,35.55
2023-05-07T10:05:55.493Z,35.72
2023-05-07T10:08:25.376Z,35.63
2023-05-07T10:10:58.818Z,35.66
2023-05-07T10:13:30.279Z,35.56
2023-05-07T10:16:02.862Z,35.60
2023-05-07T10:18:37.449Z,35.52
2023-05-07T10:21:25.363Z,35.60
2023-05-07T10:24:19.260Z,35.55
2023-05-07T10:26:53.635Z,35.38
2023-05-07T10:29:29.792Z,35.39
2023-05-07T10:32:22.430Z,35.38
2023-05-07T10:34:55.906Z,35.36
2023-05-07T10:37:26.393Z,35.39
2023-05-07T10:39:57.475Z,35.38
2023-05-07T10:42:28.706Z,35.38
2023-05-07T10:44:59.387Z,35.37
2023-05-07T10:47:32.346Z,35.22
2023-05-07T10:50:07.055Z,35.26
2023-05-07T10:52:41.010Z,35.32
2023-05-07T10:55:23.458Z,35.34
2023-05-07T11:01:06.573Z,35.24
2023-05-07T11:04:29.669Z,35.45
2023-05-07T11:07:11.140Z,35.37
2023-05-07T11:09:55.229Z,35.40
2023-05-07T11:12:40.413Z,35.39
2023-05-07T11:15:37.077Z,35.43
2023-05-07T11:18:11.942Z,35.31
2023-05-07T11:20:52.627Z,35.27
2023-05-07T11:23:44.674Z,35.23
2023-05-07T11:26:21.114Z,35.27
2023-05-07T11:28:51.250Z,35.23
2023-05-07T11:31:27.816Z,35.22
2023-05-07T11:34:00.107Z,35.32
2023-05-07T11:36:34.768Z,35.29
2023-05-07T11:39:06.184Z,35.27
2023-05-07T11:41:39.393Z,35.24
2023-05-07T11:44:08.511Z,35.26
2023-05-07T11:46:37.427Z,35.25
2023-05-07T11:49:06.654Z,35.17
2023-05-07T11:51:35.579Z,35.10
2023-05-07T11:54:10.647Z,35.18
2023-05-07T11:56:40.906Z,35.00
2023-05-07T11:59:09.972Z,35.10
2023-05-07T12:01:39.107Z,35.05
2023-05-07T12:04:08.402Z,35.13
2023-05-07T12:06:39.930Z,35.15
2023-05-07T12:09:13.368Z,35.20
2023-05-07T12:11:42.470Z,35.16
2023-05-07T12:14:12.377Z,35.05
2023-05-07T12:16:43.206Z,35.00
2023-05-07T12:19:15.837Z,34.82
2023-05-07T12:21:45.791Z,34.53
2023-05-07T12:24:16.533Z,34.44
2023-05-07T12:26:46.623Z,34.62
2023-05-07T12:29:15.838Z,34.46
2023-05-07T12:31:45.943Z,34.45
2023-05-07T12:34:15.128Z,34.50
2023-05-07T12:36:44.266Z,34.40
2023-05-07T12:39:13.715Z,34.31
2023-05-07T12:42:02.897Z,34.45
2023-05-07T12:44:36.362Z,34.29
2023-05-07T12:47:05.617Z,34.14
2023-05-07T12:49:39.833Z,34.20
2023-05-07T12:52:09.228Z,33.90
2023-05-07T12:54:41.075Z,33.92
2023-05-07T12:57:11.922Z,33.92
2023-05-07T12:59:42.866Z,34.02
2023-05-07T13:02:12.273Z,33.96
2023-05-07T13:04:42.940Z,33.92
2023-05-07T13:07:12.190Z,33.81
2023-05-07T13:09:41.233Z,33.67
2023-05-07T13:12:10.352Z,33.54
2023-05-07T13:14:39.310Z,33.55
2023-05-07T13:17:08.515Z,33.46
2023-05-07T13:19:39.435Z,33.43
2023-05-07T13:22:08.580Z,33.35
2023-05-07T13:24:37.618Z,33.27
2023-05-07T13:27:06.765Z,33.21
2023-05-07T13:29:35.785Z,33.06
2023-05-07T13:32:05.042Z,32.99
2023-05-07T13:34:34.206Z,32.90
2023-05-07T13:37:03.558Z,32.87
2023-05-07T13:39:32.822Z,32.70
2023-05-07T13:42:02.027Z,32.81
2023-05-07T13:44:31.319Z,32.79
2023-05-07T13:47:00.240Z,32.68
2023-05-07T13:49:29.592Z,32.57
2023-05-07T13:51:58.720Z,32.63
2023-05-07T13:54:27.761Z,32.59
2023-05-07T13:56:57.006Z,32.57
2023-05-07T13:59:26.103Z,32.51
2023-05-07T14:01:54.790Z,32.46
2023-05-07T14:04:24.007Z,32.43
2023-05-07T14:06:52.892Z,32.24
2023-05-07T14:09:21.907Z,32.19
2023-05-07T14:11:53.267Z,32.27
2023-05-07T14:14:22.484Z,32.26
2023-05-07T14:16:51.558Z,32.21
2023-05-07T14:19:50.880Z,32.20
2023-05-07T14:22:20.126Z,31.85
2023-05-07T14:24:59.442Z,31.81
2023-05-07T14:27:35.425Z,31.75
2023-05-07T14:30:04.368Z,31.79
2023-05-07T14:32:34.340Z,31.64
2023-05-07T14:35:03.325Z,31.61
2023-05-07T14:37:32.442Z,31.73
2023-05-07T14:40:01.279Z,31.69
2023-05-07T14:42:30.427Z,31.31
2023-05-07T14:44:59.175Z,31.41
2023-05-07T14:47:28.143Z,31.41
2023-05-07T14:49:57.149Z,31.39
2023-05-07T14:52:26.248Z,31.44
2023-05-07T14:54:55.003Z,31.45
2023-05-07T14:57:24.388Z,31.50
2023-05-07T14:59:53.362Z,31.28
2023-05-07T15:02:22.751Z,31.40
2023-05-07T15:04:51.978Z,31.35
2023-05-07T15:07:20.949Z,31.29
2023-05-07T15:09:49.781Z,31.07
2023-05-07T15:12:18.830Z,31.09
2023-05-07T15:14:47.743Z,30.91
2023-05-07T15:17:17.031Z,30.99
2023-05-07T15:19:45.871Z,30.91
2023-05-07T15:22:14.840Z,30.95
2023-05-07T15:24:43.672Z,30.86
2023-05-07T15:27:12.948Z,30.74
2023-05-07T15:29:42.036Z,30.69
2023-05-07T15:32:11.058Z,30.71
2023-05-07T15:34:40.093Z,30.54
2023-05-07T15:37:09.147Z,30.52
2023-05-07T15:39:37.833Z,30.55
2023-05-07T15:42:07.062Z,30.49
2023-05-07T15:44:36.391Z,30.51
2023-05-07T15:47:05.451Z,30.36
2023-05-07T15:49:34.891Z,30.46
2023-05-07T15:52:03.882Z,30.42
2023-05-07T15:54:32.837Z,30.21
2023-05-07T15:57:03.281Z,30.29
2023-05-07T15:59:32.180Z,30.30
2023-05-07T16:02:02.173Z,30.32
2023-05-07T16:04:31.233Z,30.27
2023-05-07T16:07:00.035Z,30.20
2023-05-07T16:09:30.233Z,29.85
2023-05-07T16:11:59.329Z,29.92
2023-05-07T16:14:28.396Z,30.05
2023-05-07T16:16:57.601Z,30.06
2023-05-07T16:19:26.644Z,30.00
2023-05-07T16:21:55.800Z,29.81
2023-05-07T16:24:24.587Z,29.81
2023-05-07T16:26:53.585Z,29.76
2023-05-07T16:29:24.001Z,29.70
2023-05-07T16:31:54.242Z,29.48
2023-05-07T16:34:24.278Z,29.41
2023-05-07T16:36:53.496Z,29.31
2023-05-07T16:39:22.361Z,29.32
2023-05-07T16:41:51.705Z,29.23
2023-05-07T16:44:20.532Z,29.23
2023-05-07T16:46:49.669Z,29.22
2023-05-07T16:49:18.452Z,29.21
2023-05-07T16:51:48.015Z,29.21
2023-05-07T16:54:16.962Z,29.15
2023-05-07T16:56:45.959Z,29.37
2023-05-07T16:59:14.848Z,29.33
2023-05-07T17:01:43.850Z,29.38
2023-05-07T17:04:12.875Z,29.29
2023-05-07T17:06:41.833Z,29.31
2023-05-07T17:09:10.830Z,29.15
2023-05-07T17:11:39.884Z,29.17
2023-05-07T17:14:08.755Z,29.20
2023-05-07T17:16:38.270Z,29.05
2023-05-07T17:19:07.737Z,29.17
2023-05-07T17:21:36.773Z,29.04
2023-05-07T17:24:05.995Z,28.98
2023-05-07T17:26:37.264Z,28.95
2023-05-07T17:29:06.419Z,28.97
2023-05-07T17:31:35.285Z,28.93
2023-05-07T17:34:04.407Z,28.84
2023-05-07T17:36:33.962Z,28.79
2023-05-07T17:39:03.452Z,28.81
2023-05-07T17:41:32.299Z,28.76
2023-05-07T17:44:01.362Z,28.64
2023-05-07T17:46:30.432Z,28.60
2023-05-07T17:48:59.566Z,28.61
2023-05-07T17:51:36.060Z,28.59
2023-05-07T17:54:11.840Z,28.62
2023-05-07T17:56:41.751Z,28.65
2023-05-07T17:59:10.929Z,28.59
2023-05-07T18:01:40.168Z,28.53
2023-05-07T18:04:10.370Z,28.62
2023-05-07T18:06:39.758Z,28.58
2023-05-07T18:09:08.649Z,28.50
2023-05-07T18:11:38.741Z,28.32
2023-05-07T18:14:07.971Z,28.35
2023-05-07T18:16:36.867Z,28.39
2023-05-07T18:19:06.028Z,28.20
2023-05-07T18:21:34.764Z,28.20
2023-05-07T18:24:03.959Z,28.17
2023-05-07T18:26:32.767Z,28.25
2023-05-07T18:29:02.072Z,28.29
2023-05-07T18:31:31.021Z,28.26
2023-05-07T18:34:00.182Z,28.23
2023-05-07T18:36:29.101Z,28.17
2023-05-07T18:38:58.083Z,28.08
2023-05-07T18:41:26.881Z,28.01
2023-05-07T18:43:56.031Z,28.01
2023-05-07T18:46:25.008Z,27.94
2023-05-07T18:48:55.874Z,27.84
2023-05-07T18:51:24.865Z,27.82
2023-05-07T18:53:53.698Z,27.83
2023-05-07T18:56:22.850Z,27.72
2023-05-07T18:58:51.648Z,27.64
2023-05-07T19:01:20.799Z,27.75
2023-05-07T19:03:49.726Z,27.75
2023-05-07T19:06:18.703Z,27.77
2023-05-07T19:08:47.469Z,27.72
2023-05-07T19:11:16.679Z,27.58
2023-05-07T19:13:46.304Z,27.63
2023-05-07T19:16:15.316Z,27.66
2023-05-07T19:18:44.532Z,27.59
2023-05-07T19:21:13.549Z,27.45
2023-05-07T19:23:47.125Z,27.41
2023-05-07T19:26:16.217Z,27.36
2023-05-07T19:28:45.458Z,27.23
2023-05-07T19:31:27.918Z,27.40
2023-05-07T19:33:56.872Z,27.23
2023-05-07T19:36:25.575Z,27.25
2023-05-07T19:38:55.599Z,27.05
2023-05-07T19:41:24.610Z,27.14
2023-05-07T19:43:53.646Z,27.14
2023-05-07T19:46:22.649Z,27.09
2023-05-07T19:48:52.000Z,27.07
2023-05-07T19:51:20.859Z,27.08
2023-05-07T19:53:50.022Z,27.07
2023-05-07T19:56:18.801Z,27.01
2023-05-07T19:58:47.772Z,26.90
2023-05-07T20:01:17.148Z,26.74
2023-05-07T20:03:47.706Z,26.88
2023-05-07T20:06:17.625Z,26.57
2023-05-07T20:08:47.420Z,26.53
2023-05-07T20:11:17.448Z,26.59
2023-05-07T20:13:47.078Z,26.49
2023-05-07T20:16:19.112Z,26.59
2023-05-07T20:18:50.196Z,26.59
2023-05-07T20:21:21.566Z,26.58
2023-05-07T20:23:53.623Z,26.47
2023-05-07T20:26:24.703Z,26.52
2023-05-07T20:28:55.475Z,26.54
2023-05-07T20:31:25.979Z,26.49
2023-05-07T20:33:57.146Z,26.44
2023-05-07T20:36:28.647Z,26.33
2023-05-07T20:38:59.605Z,26.29
2023-05-07T20:41:30.602Z,26.29
2023-05-07T20:44:02.580Z,26.19
2023-05-07T20:46:34.041Z,26.35
2023-05-07T20:49:05.240Z,26.08
2023-05-07T20:51:36.999Z,26.13
2023-05-07T20:54:10.229Z,26.31
2023-05-07T20:56:40.363Z,26.28
2023-05-07T20:59:11.283Z,26.26
2023-05-07T21:01:44.303Z,26.24
2023-05-07T21:04:15.198Z,26.12
2023-05-07T21:06:46.626Z,26.15
2023-05-07T21:09:18.578Z,26.07
2023-05-07T21:11:49.886Z,26.04
2023-05-07T21:14:21.963Z,25.99
2023-05-07T21:16:53.381Z,26.05
2023-05-07T21:19:24.798Z,26.12
2023-05-07T21:21:59.022Z,26.00
2023-05-07T21:24:29.968Z,26.11
2023-05-07T21:27:04.341Z,26.02
2023-05-07T21:29:36.590Z,25.85
2023-05-07T21:32:07.998Z,26.00
2023-05-07T21:34:38.988Z,26.03
2023-05-07T21:37:10.332Z,25.99
2023-05-07T21:39:41.728Z,26.01
2023-05-07T21:42:13.025Z,26.04
2023-05-07T21:44:44.614Z,25.96
2023-05-07T21:47:15.510Z,26.03
2023-05-07T21:49:46.763Z,25.93
2023-05-07T21:52:18.831Z,25.97
2023-05-07T21:54:53.805Z,25.90
2023-05-07T21:57:24.512Z,25.98
2023-05-07T21:59:55.764Z,25.83
2023-05-07T22:02:27.336Z,25.86
2023-05-07T22:04:58.475Z,25.74
2023-05-07T22:07:30.006Z,25.83
2023-05-07T22:10:01.438Z,25.74
2023-05-07T22:12:32.383Z,25.75
2023-05-07T22:15:03.268Z,25.84
2023-05-07T22:17:34.402Z,25.68
2023-05-07T22:20:05.334Z,25.70
2023-05-07T22:22:48.430Z,25.62
2023-05-07T22:25:21.758Z,25.57
2023-05-07T22:27:53.341Z,25.45
2023-05-07T22:30:25.352Z,25.49
2023-05-07T22:32:56.618Z,25.47
2023-05-07T22:35:28.175Z,25.43
2023-05-07T22:38:00.191Z,25.51
2023-05-07T22:40:31.523Z,25.38
2023-05-07T22:43:03.488Z,25.30
2023-05-07T22:45:34.311Z,25.17
2023-05-07T22:48:05.205Z,25.10
2023-05-07T22:50:40.309Z,25.02
2023-05-07T22:53:11.142Z,25.00
2023-05-07T22:55:42.314Z,25.01
2023-05-07T22:58:13.632Z,24.93
2023-05-07T23:01:25.963Z,25.05
2023-05-07T23:03:55.223Z,24.94
2023-05-07T23:07:38.271Z,25.08
2023-05-07T23:10:10.388Z,24.98
2023-05-07T23:12:42.086Z,25.08
2023-05-07T23:15:14.253Z,25.08
2023-05-07T23:17:46.735Z,24.98
2023-05-07T23:20:18.231Z,24.96
2023-05-07T23:22:50.329Z,24.86
2023-05-07T23:25:21.916Z,24.85
2023-05-07T23:27:54.145Z,24.83
2023-05-07T23:30:23.679Z,24.90
2023-05-07T23:32:52.782Z,24.85
2023-05-07T23:35:22.371Z,24.98
2023-05-07T23:37:51.382Z,24.78
2023-05-07T23:40:21.034Z,24.82
2023-05-07T23:42:49.835Z,24.94
2023-05-07T23:45:19.130Z,24.83
2023-05-07T23:47:48.169Z,24.96
2023-05-07T23:50:17.426Z,24.96
2023-05-07T23:52:46.368Z,24.76
2023-05-07T23:55:17.726Z,24.91
2023-05-07T23:57:47.019Z,24.92
